Terminal Aerodrome Forecast
Issued by NWS Shreveport, LA

Current Version | Previous Version | Text Only | Print | Product List | Glossary On
Versions: 1 2 3 4 5 6 7 8 9 10 11 12 13 14 15 16 17 18 19
107
FTUS44 KSHV 260523
TAFGGG
TAF
KGGG 260523Z 2606/2706 VRB04KT P6SM SCT070 BKN150 BKN250
     FM261200 VRB03KT P6SM SCT150 BKN250
      TEMPO 2612/2614 5SM BR BKN035 BKN080
     FM262000 11006KT P6SM VCTS SCT060CB SCT250
     FM262300 13007KT P6SM -TSRA BKN040CB
     FM270300 14003KT P6SM FEW250=

USA.gov is the U.S. government's official web portal to all federal, state and local government web resources and services.